Time;durP1;ratioP1;P1;durP2;ratioP2;P2;SDS_P1;SDS_P2;PMS_P1;PMS_P2;Temp;Humidity;BMP_temperature;BMP_pressure;BME280_temperature;BME280_humidity;BME280_pressure;Samples;Min_cycle;Max_cycle;Signal;HPM_P1;HPM_P2
2024/01/26 00:01:10;;;;;;;5.60;2.50;;;13.00;71.40;11.80;97391.00;;;;5067038;28;20280;-81
2024/01/26 00:03:39;;;;;;;13.17;2.43;;;13.00;71.50;11.80;97384.00;;;;5072968;28;20692;-81
2024/01/26 00:06:06;;;;;;;4.77;2.13;;;13.00;71.60;11.80;97387.00;;;;5075374;28;20231;-81
2024/01/26 00:08:34;;;;;;;4.80;1.87;;;13.00;71.70;11.80;97385.00;;;;5077108;28;20728;-81
2024/01/26 00:11:02;;;;;;;1.97;1.80;;;13.00;71.80;11.80;97383.00;;;;5074340;28;20223;-80
2024/01/26 00:13:30;;;;;;;22.47;2.63;;;13.00;71.90;11.80;97386.00;;;;5070986;28;20628;-81
2024/01/26 00:15:57;;;;;;;12.07;2.17;;;13.00;71.90;11.80;97382.00;;;;5072550;28;20604;-81
2024/01/26 00:18:24;;;;;;;3.77;2.10;;;13.00;72.60;11.80;97384.00;;;;5072635;28;20219;-81
2024/01/26 00:20:51;;;;;;;9.33;2.20;;;12.90;71.80;11.80;97371.00;;;;5073676;28;20234;-81
2024/01/26 00:23:18;;;;;;;2.70;1.70;;;12.90;72.00;11.80;97383.00;;;;5072131;28;20286;-81
2024/01/26 00:25:46;;;;;;;2.27;2.07;;;12.90;72.10;11.70;97382.00;;;;5066639;28;20211;-81
2024/01/26 00:28:14;;;;;;;4.93;1.97;;;12.90;72.10;11.70;97383.00;;;;5054064;28;20192;-81
2024/01/26 00:30:42;;;;;;;4.47;1.80;;;12.90;72.00;11.70;97382.00;;;;5074115;28;20223;-80
2024/01/26 00:33:09;;;;;;;21.47;2.70;;;12.90;72.10;11.70;97374.00;;;;5070995;28;20195;-81
2024/01/26 00:35:36;;;;;;;19.10;2.60;;;12.80;72.20;11.60;97371.00;;;;5077705;28;20188;-80
2024/01/26 00:38:04;;;;;;;3.63;2.10;;;12.80;72.30;11.60;97371.00;;;;5078735;28;20192;-81
2024/01/26 00:40:33;;;;;;;3.83;2.20;;;12.80;72.30;11.60;97378.00;;;;5082538;28;20373;-81
2024/01/26 00:43:00;;;;;;;8.53;2.17;;;12.80;72.40;11.60;97373.00;;;;5072518;28;20281;-79
2024/01/26 00:45:29;;;;;;;19.90;2.87;;;12.80;72.50;11.60;97373.00;;;;5066826;28;20228;-80
2024/01/26 00:47:56;;;;;;;27.23;4.37;;;12.80;72.70;11.60;97374.00;;;;5070654;28;20200;-80
2024/01/26 00:50:24;;;;;;;3.77;2.50;;;12.80;73.10;11.60;97381.00;;;;5067139;28;20294;-80
2024/01/26 00:52:52;;;;;;;2.47;2.27;;;12.70;72.70;11.60;97378.00;;;;5071369;28;20208;-80
2024/01/26 00:55:19;;;;;;;4.33;2.40;;;12.80;73.00;11.60;97383.00;;;;5071685;28;20270;-80
2024/01/26 00:57:46;;;;;;;29.03;3.60;;;12.80;73.00;11.60;97384.00;;;;5071649;28;20220;-79
2024/01/26 01:00:14;;;;;;;5.13;2.30;;;12.80;73.10;11.60;97378.00;;;;5074453;28;20807;-79
2024/01/26 01:02:43;;;;;;;3.57;2.33;;;12.80;73.20;11.60;97380.00;;;;5073874;28;20221;-79
2024/01/26 01:05:11;;;;;;;12.47;2.90;;;12.80;73.30;11.60;97379.00;;;;5071629;28;20211;-80
2024/01/26 01:07:39;;;;;;;3.57;2.43;;;12.80;73.30;11.60;97377.00;;;;5069732;28;20196;-80
2024/01/26 01:10:08;;;;;;;2.87;2.40;;;12.80;73.30;11.60;97371.00;;;;5072368;28;20299;-80
2024/01/26 01:12:35;;;;;;;3.63;2.50;;;12.80;73.40;11.60;97372.00;;;;5071741;28;20303;-80
2024/01/26 01:15:03;;;;;;;4.00;2.47;;;12.80;73.50;11.60;97377.00;;;;5070059;28;20195;-80
2024/01/26 01:17:33;;;;;;;3.93;2.77;;;12.80;74.20;11.60;97390.00;;;;5070410;28;20710;-80
2024/01/26 01:20:04;;;;;;;18.83;3.70;;;12.80;73.60;11.70;97387.00;;;;5071510;28;20215;-80
2024/01/26 01:22:34;;;;;;;3.93;2.80;;;12.80;73.70;11.70;97380.00;;;;5071117;28;20189;-80
2024/01/26 01:25:01;;;;;;;27.40;4.97;;;12.80;73.80;11.60;97372.00;;;;5069127;28;20310;-80
2024/01/26 01:27:32;;;;;;;20.10;4.10;;;12.80;73.80;11.70;97382.00;;;;5070166;28;20207;-80
2024/01/26 01:30:00;;;;;;;5.50;2.73;;;12.80;73.80;11.70;97378.00;;;;5069695;28;20212;-80
2024/01/26 01:32:27;;;;;;;9.73;3.07;;;12.90;73.90;11.70;97382.00;;;;5069743;28;20196;-80
2024/01/26 01:34:54;;;;;;;5.93;2.67;;;12.90;74.00;11.70;97384.00;;;;5074829;28;20208;-80
2024/01/26 01:37:22;;;;;;;26.90;3.33;;;12.80;73.80;11.70;97386.00;;;;5069847;28;20195;-80
2024/01/26 01:39:51;;;;;;;2.73;2.40;;;12.90;73.80;11.70;97394.00;;;;5075098;28;20216;-80
2024/01/26 01:42:19;;;;;;;14.30;3.57;;;12.80;73.70;11.70;97390.00;;;;5067945;28;20283;-79
2024/01/26 01:44:48;;;;;;;11.70;3.57;;;12.80;73.80;11.60;97390.00;;;;5071638;28;20791;-80
2024/01/26 01:47:17;;;;;;;37.60;4.23;;;12.80;73.90;11.60;97384.00;;;;5073519;28;20271;-80
2024/01/26 01:49:45;;;;;;;2.40;2.20;;;12.80;73.90;11.60;97387.00;;;;5065826;28;20227;-80
2024/01/26 01:52:15;;;;;;;3.70;2.40;;;12.80;73.90;11.60;97379.00;;;;5071711;28;20271;-80
2024/01/26 01:54:45;;;;;;;2.90;2.70;;;12.80;74.00;11.60;97377.00;;;;5075500;28;20199;-80
2024/01/26 01:57:13;;;;;;;3.50;3.20;;;12.80;74.00;11.60;97376.00;;;;5075795;28;20207;-80
2024/01/26 01:59:41;;;;;;;35.53;4.80;;;12.80;74.00;11.60;97378.00;;;;5072711;28;20700;-80
2024/01/26 02:02:08;;;;;;;23.23;4.90;;;12.80;74.10;11.60;97371.00;;;;5075085;28;20275;-80
2024/01/26 02:04:36;;;;;;;4.47;2.60;;;12.80;74.00;11.60;97377.00;;;;5075533;28;20306;-80
2024/01/26 02:07:05;;;;;;;2.83;2.50;;;12.80;74.00;11.60;97365.00;;;;5075055;28;20214;-80
2024/01/26 02:09:34;;;;;;;3.37;2.60;;;12.80;74.00;11.50;97368.00;;;;5073618;28;20298;-79
2024/01/26 02:12:03;;;;;;;3.47;3.00;;;12.80;73.90;11.50;97375.00;;;;5067285;28;20271;-79
2024/01/26 02:14:33;;;;;;;3.60;3.10;;;12.70;73.80;11.50;97369.00;;;;5073798;28;20196;-80
2024/01/26 02:17:03;;;;;;;4.30;3.20;;;12.70;73.90;11.50;97378.00;;;;5072660;28;20796;-80
2024/01/26 02:19:34;;;;;;;4.07;3.67;;;12.70;74.10;11.50;97376.00;;;;5072859;28;20261;-80
2024/01/26 02:22:01;;;;;;;11.07;3.80;;;12.70;74.20;11.50;97371.00;;;;5072303;28;20187;-80
2024/01/26 02:24:30;;;;;;;3.77;3.47;;;12.60;74.20;11.40;97368.00;;;;5072398;28;20235;-80
2024/01/26 02:26:57;;;;;;;4.53;3.73;;;12.60;74.40;11.50;97368.00;;;;5071198;28;20188;-80
2024/01/26 02:29:24;;;;;;;4.60;3.57;;;12.70;74.60;11.40;97369.00;;;;5072555;28;20308;-80
2024/01/26 02:31:51;;;;;;;6.27;3.33;;;12.60;74.60;11.40;97379.00;;;;5071709;28;20200;-80
2024/01/26 02:34:18;;;;;;;29.23;4.87;;;12.60;74.60;11.40;97378.00;;;;5074869;28;20207;-80
2024/01/26 02:36:46;;;;;;;21.93;4.60;;;12.60;74.60;11.50;97375.00;;;;5074078;28;20679;-80
2024/01/26 02:39:13;;;;;;;7.23;3.80;;;12.60;74.70;11.50;97374.00;;;;5074572;28;20290;-80
2024/01/26 02:41:42;;;;;;;8.70;3.83;;;12.60;74.70;11.50;97377.00;;;;5074249;28;20685;-80
2024/01/26 02:44:09;;;;;;;31.57;4.73;;;12.70;75.50;11.50;97377.00;;;;5073116;28;20220;-80
2024/01/26 02:46:37;;;;;;;15.67;3.77;;;12.70;74.80;11.50;97372.00;;;;5073105;28;20285;-80
2024/01/26 02:49:05;;;;;;;3.97;3.37;;;12.70;74.80;11.50;97371.00;;;;5075520;28;20211;-80
2024/01/26 02:51:44;;;;;;;3.83;3.53;;;12.70;74.80;11.60;97370.00;;;;5076296;28;20188;-80
2024/01/26 02:54:11;;;;;;;3.63;3.30;;;12.70;74.60;11.60;97369.00;;;;5072420;28;20206;-80
2024/01/26 02:56:38;;;;;;;4.30;3.63;;;12.70;74.70;11.60;97367.00;;;;5074365;28;20283;-80
2024/01/26 02:59:07;;;;;;;3.90;3.60;;;12.80;74.60;11.60;97379.00;;;;5073997;28;20298;-80
2024/01/26 03:01:34;;;;;;;4.40;3.67;;;12.70;74.50;11.60;97374.00;;;;5082774;28;20265;-80
2024/01/26 03:04:02;;;;;;;3.50;3.20;;;12.80;74.60;11.60;97371.00;;;;5077206;28;20305;-80
2024/01/26 03:06:29;;;;;;;15.30;3.93;;;12.80;74.60;11.60;97374.00;;;;5073082;28;20212;-80
2024/01/26 03:08:56;;;;;;;9.00;4.63;;;12.80;74.60;11.60;97372.00;;;;5072612;28;20741;-80
2024/01/26 03:11:38;;;;;;;4.97;4.07;;;12.80;74.70;11.60;97371.00;;;;5074269;28;20212;-80
2024/01/26 03:14:07;;;;;;;5.97;4.83;;;12.80;74.90;11.60;97378.00;;;;5072995;28;20187;-80
2024/01/26 03:16:40;;;;;;;5.33;4.83;;;12.80;75.10;11.60;97366.00;;;;5072617;28;20870;-80
2024/01/26 03:19:08;;;;;;;11.93;4.83;;;12.80;75.20;11.60;97372.00;;;;5071434;28;20695;-80
2024/01/26 03:21:42;;;;;;;24.97;6.03;;;12.80;75.20;11.70;97380.00;;;;5072197;28;20188;-80
2024/01/26 03:24:10;;;;;;;5.43;3.60;;;12.80;75.10;11.70;97382.00;;;;5073646;28;20222;-80
2024/01/26 03:26:37;;;;;;;27.67;4.83;;;12.80;75.00;11.70;97386.00;;;;5070750;28;20211;-80
2024/01/26 03:29:06;;;;;;;4.63;4.00;;;12.80;74.90;11.70;97387.00;;;;5079190;28;20239;-80
2024/01/26 03:31:37;;;;;;;7.43;3.93;;;12.80;75.00;11.70;97393.00;;;;5072469;28;20200;-80
2024/01/26 03:34:04;;;;;;;9.20;4.50;;;12.90;75.80;11.70;97386.00;;;;5073638;28;20631;-80
2024/01/26 03:36:32;;;;;;;10.70;4.37;;;12.90;75.20;11.70;97386.00;;;;5072861;28;20188;-80
2024/01/26 03:38:59;;;;;;;6.90;4.87;;;12.90;75.20;11.70;97394.00;;;;5073685;28;20270;-80
2024/01/26 03:41:27;;;;;;;6.07;4.23;;;12.90;75.40;11.80;97391.00;;;;5073448;28;20290;-80
2024/01/26 03:43:54;;;;;;;5.27;4.77;;;12.90;75.40;11.80;97387.00;;;;5073158;28;20184;-79
2024/01/26 03:46:23;;;;;;;15.67;5.60;;;12.90;75.50;11.80;97386.00;;;;5074564;28;20691;-79
2024/01/26 03:48:50;;;;;;;5.30;4.80;;;12.90;75.60;11.80;97385.00;;;;5072934;28;20284;-80
2024/01/26 03:51:17;;;;;;;7.37;5.37;;;12.90;75.60;11.80;97387.00;;;;5073293;28;20208;-80
2024/01/26 03:53:45;;;;;;;4.77;4.37;;;12.90;75.80;11.80;97390.00;;;;5069364;28;20560;-80
2024/01/26 03:56:12;;;;;;;5.23;4.73;;;13.00;76.00;11.80;97393.00;;;;5073113;28;20226;-80
2024/01/26 03:58:39;;;;;;;5.13;4.67;;;13.00;76.10;11.80;97397.00;;;;5069908;28;20763;-80
2024/01/26 04:01:06;;;;;;;5.10;4.60;;;13.00;76.20;11.90;97395.00;;;;5073464;28;20220;-80
2024/01/26 04:03:35;;;;;;;4.77;4.37;;;13.00;76.30;11.90;97397.00;;;;5077698;28;20274;-80
2024/01/26 04:06:04;;;;;;;5.63;5.03;;;13.00;76.50;11.90;97395.00;;;;5072823;28;20315;-80
2024/01/26 04:08:32;;;;;;;6.53;4.70;;;13.00;76.40;11.90;97387.00;;;;5071165;28;20246;-80
2024/01/26 04:10:59;;;;;;;4.63;4.23;;;13.00;76.40;11.90;97390.00;;;;5071580;28;20192;-80
2024/01/26 04:13:26;;;;;;;5.93;4.37;;;13.00;76.60;11.90;97400.00;;;;5070088;28;20575;-80
2024/01/26 04:15:53;;;;;;;4.93;4.43;;;13.00;76.50;12.00;97398.00;;;;5071276;28;20215;-80
2024/01/26 04:18:21;;;;;;;5.33;4.57;;;13.10;76.50;12.00;97396.00;;;;5070486;28;20668;-80
2024/01/26 04:20:50;;;;;;;4.67;4.27;;;13.10;76.50;12.00;97388.00;;;;5071061;28;20192;-80
2024/01/26 04:23:17;;;;;;;4.67;4.20;;;13.10;76.50;12.00;97390.00;;;;5064172;28;20284;-80
2024/01/26 04:25:45;;;;;;;4.90;4.07;;;13.10;76.50;12.00;97386.00;;;;5065367;28;20231;-80
2024/01/26 04:28:12;;;;;;;8.40;4.10;;;13.10;76.50;12.00;97394.00;;;;5070426;28;20794;-80
2024/01/26 04:30:42;;;;;;;4.67;4.27;;;13.10;76.40;12.00;97394.00;;;;5066472;28;20199;-80
2024/01/26 04:33:09;;;;;;;8.17;4.50;;;13.10;76.50;12.00;97395.00;;;;5069410;28;20192;-79
2024/01/26 04:35:36;;;;;;;9.90;4.10;;;13.10;76.50;12.00;97394.00;;;;5074162;28;20219;-80
2024/01/26 04:38:07;;;;;;;4.90;4.40;;;13.10;76.50;12.00;97394.00;;;;5075026;28;20546;-80
2024/01/26 04:40:35;;;;;;;4.90;4.50;;;13.10;76.60;12.00;97394.00;;;;5069678;28;20212;-79
2024/01/26 04:43:04;;;;;;;4.63;4.20;;;13.10;76.50;12.00;97399.00;;;;5070782;28;20287;-80
2024/01/26 04:45:40;;;;;;;17.87;5.80;;;13.10;76.70;11.90;97396.00;;;;5075067;28;20220;-79
2024/01/26 04:48:08;;;;;;;5.10;4.57;;;13.10;76.70;11.90;97399.00;;;;5071250;28;20213;-79
2024/01/26 04:50:35;;;;;;;5.77;5.33;;;13.10;76.80;11.90;97390.00;;;;5072509;28;20210;-80
2024/01/26 04:53:05;;;;;;;5.77;5.13;;;13.10;76.90;11.90;97393.00;;;;5071981;28;20192;-80
2024/01/26 04:55:33;;;;;;;4.97;4.47;;;13.00;76.80;11.90;97400.00;;;;5072230;28;20665;-80
2024/01/26 04:58:01;;;;;;;26.23;5.57;;;13.00;76.90;11.90;97403.00;;;;5071921;28;20207;-80
2024/01/26 05:00:31;;;;;;;6.17;4.83;;;13.00;77.10;11.90;97401.00;;;;5069719;28;20227;-80
2024/01/26 05:02:58;;;;;;;6.23;4.90;;;13.10;77.20;11.90;97402.00;;;;5068267;28;20266;-80
2024/01/26 05:05:26;;;;;;;4.57;4.17;;;13.00;77.20;12.00;97417.00;;;;5071151;28;20300;-80
2024/01/26 05:07:54;;;;;;;5.00;4.60;;;13.10;77.30;11.90;97418.00;;;;5074387;28;20254;-79
2024/01/26 05:10:22;;;;;;;6.60;4.77;;;13.10;77.30;12.00;97420.00;;;;5070138;28;20250;-80
2024/01/26 05:12:49;;;;;;;5.00;4.50;;;13.10;77.40;12.00;97429.00;;;;5070090;28;20199;-80
2024/01/26 05:15:17;;;;;;;6.23;4.37;;;13.10;77.40;12.00;97429.00;;;;5069963;28;20259;-80
2024/01/26 05:17:45;;;;;;;4.77;4.37;;;13.10;77.40;12.00;97417.00;;;;5063635;28;20208;-80
2024/01/26 05:20:12;;;;;;;4.67;4.23;;;13.10;77.40;12.00;97431.00;;;;5069997;28;20220;-79
2024/01/26 05:22:40;;;;;;;4.53;3.93;;;13.10;77.50;12.00;97436.00;;;;5070857;28;20242;-80
2024/01/26 05:25:08;;;;;;;5.77;3.90;;;13.10;77.40;12.00;97430.00;;;;5070593;28;20311;-79
2024/01/26 05:27:37;;;;;;;4.87;4.30;;;13.10;77.40;12.00;97426.00;;;;5071877;28;20215;-80
2024/01/26 05:30:05;;;;;;;5.07;4.67;;;13.10;77.50;12.00;97433.00;;;;5069893;28;20239;-80
2024/01/26 05:32:33;;;;;;;4.90;4.40;;;13.10;77.50;12.00;97435.00;;;;5072045;28;20195;-80
2024/01/26 05:35:00;;;;;;;4.60;4.20;;;13.10;77.60;12.00;97426.00;;;;5070823;28;20191;-80
2024/01/26 05:37:27;;;;;;;5.63;3.90;;;13.10;77.60;12.00;97427.00;;;;5072173;28;20196;-80
2024/01/26 05:39:54;;;;;;;4.60;4.20;;;13.10;77.60;12.10;97428.00;;;;5067132;28;20298;-80
2024/01/26 05:42:22;;;;;;;3.80;3.50;;;13.20;77.60;12.00;97436.00;;;;5067646;28;20234;-80
2024/01/26 05:44:50;;;;;;;7.53;4.60;;;13.20;77.70;12.10;97430.00;;;;5068563;28;20236;-80
2024/01/26 05:47:18;;;;;;;4.23;3.83;;;13.20;77.60;12.10;97431.00;;;;5071406;28;20724;-80
2024/01/26 05:49:45;;;;;;;4.53;4.03;;;13.20;77.60;12.10;97433.00;;;;5071683;28;20211;-80
2024/01/26 05:52:13;;;;;;;4.30;3.90;;;13.20;77.50;12.10;97429.00;;;;5067473;28;20264;-80
2024/01/26 05:54:40;;;;;;;4.37;3.97;;;13.20;77.50;12.10;97438.00;;;;5071888;28;20215;-80
2024/01/26 05:57:08;;;;;;;7.33;3.90;;;13.20;77.50;12.10;97438.00;;;;5074945;28;20198;-80
2024/01/26 05:59:37;;;;;;;8.43;3.80;;;13.20;77.50;12.10;97426.00;;;;5068247;28;20840;-80
2024/01/26 06:02:06;;;;;;;4.27;3.87;;;13.20;77.40;12.10;97436.00;;;;5073144;28;20184;-80
2024/01/26 06:04:33;;;;;;;3.60;3.30;;;13.20;77.40;12.10;97434.00;;;;5070287;28;20555;-80
2024/01/26 06:07:01;;;;;;;3.50;3.20;;;13.20;77.40;12.10;97427.00;;;;5070157;28;20691;-80
2024/01/26 06:09:28;;;;;;;3.97;3.33;;;13.20;77.40;12.10;97431.00;;;;5075050;28;20215;-80
2024/01/26 06:11:55;;;;;;;21.00;4.77;;;13.20;77.40;12.10;97429.00;;;;5069915;28;20644;-79
2024/01/26 06:14:22;;;;;;;3.07;2.87;;;13.20;77.30;12.10;97430.00;;;;5066826;28;20659;-80
2024/01/26 06:16:50;;;;;;;3.57;3.30;;;13.20;77.30;12.10;97427.00;;;;5069722;28;20295;-80
2024/01/26 06:19:18;;;;;;;3.77;3.47;;;13.20;77.30;12.10;97432.00;;;;5070093;28;20303;-80
2024/01/26 06:21:45;;;;;;;3.37;3.07;;;13.20;77.20;12.10;97424.00;;;;5070918;28;20274;-80
2024/01/26 06:24:13;;;;;;;2.93;2.70;;;13.20;77.20;12.10;97425.00;;;;5071487;28;20275;-80
2024/01/26 06:26:40;;;;;;;3.27;3.00;;;13.20;77.20;12.10;97428.00;;;;5075001;28;20212;-80
2024/01/26 06:29:07;;;;;;;3.60;3.30;;;13.20;77.10;12.10;97431.00;;;;5071281;28;20576;-80
2024/01/26 06:31:34;;;;;;;2.90;2.70;;;13.20;77.20;12.20;97431.00;;;;5069513;28;20224;-80
2024/01/26 06:34:02;;;;;;;2.83;2.63;;;13.20;77.20;12.20;97438.00;;;;5065098;28;20188;-80
2024/01/26 06:36:30;;;;;;;2.50;2.30;;;13.20;77.30;12.20;97430.00;;;;5065963;28;20275;-80
2024/01/26 06:38:58;;;;;;;2.90;2.70;;;13.30;77.30;12.20;97430.00;;;;5070581;28;20273;-79
2024/01/26 06:41:25;;;;;;;6.33;2.70;;;13.30;77.20;12.20;97428.00;;;;5071402;28;20279;-79
2024/01/26 06:43:52;;;;;;;2.73;2.53;;;13.30;77.20;12.20;97430.00;;;;5074816;28;20724;-79
2024/01/26 06:46:22;;;;;;;4.97;2.83;;;13.30;77.10;12.20;97428.00;;;;5072278;28;20654;-79
2024/01/26 06:48:50;;;;;;;2.63;2.43;;;13.40;77.00;12.30;97435.00;;;;5068435;28;20638;-79
2024/01/26 06:51:17;;;;;;;2.77;2.57;;;13.40;77.00;12.30;97425.00;;;;5073312;28;20195;-79
2024/01/26 06:53:46;;;;;;;5.40;2.70;;;13.40;77.00;12.30;97430.00;;;;5070309;28;20537;-79
2024/01/26 06:56:13;;;;;;;8.43;3.00;;;13.40;76.90;12.30;97424.00;;;;5069394;28;20200;-78
2024/01/26 06:58:40;;;;;;;11.03;2.80;;;13.40;76.90;12.30;97423.00;;;;5070700;28;20243;-78
2024/01/26 07:01:08;;;;;;;18.77;3.60;;;13.50;76.90;12.30;97420.00;;;;5067884;28;20713;-78
2024/01/26 07:03:35;;;;;;;2.87;2.43;;;13.50;76.80;12.40;97423.00;;;;5070670;28;20602;-78
2024/01/26 07:06:02;;;;;;;2.50;2.30;;;13.50;76.70;12.40;97419.00;;;;5071186;28;20270;-78
2024/01/26 07:08:29;;;;;;;2.50;2.30;;;13.50;76.60;12.40;97422.00;;;;5070755;28;20195;-78
2024/01/26 07:10:58;;;;;;;3.17;2.53;;;13.50;76.50;12.40;97416.00;;;;5075232;28;20680;-79
2024/01/26 07:13:25;;;;;;;3.27;2.40;;;13.50;77.20;12.40;97418.00;;;;5074866;28;20713;-78
2024/01/26 07:15:52;;;;;;;2.10;1.90;;;13.50;76.40;12.40;97420.00;;;;5075674;28;20202;-79
2024/01/26 07:18:19;;;;;;;2.37;2.17;;;13.50;76.50;12.40;97433.00;;;;5072787;28;20214;-79
2024/01/26 07:20:47;;;;;;;2.27;2.07;;;13.50;77.10;12.40;97428.00;;;;5070116;28;20283;-79
2024/01/26 07:23:14;;;;;;;2.37;2.17;;;13.50;76.30;12.40;97425.00;;;;5072419;28;20617;-79
2024/01/26 07:25:41;;;;;;;1.77;1.67;;;13.50;76.20;12.40;97434.00;;;;5071848;28;20493;-79
2024/01/26 07:28:13;;;;;;;1.53;1.43;;;13.60;76.30;12.50;97423.00;;;;5068682;28;20185;-79
2024/01/26 07:30:40;;;;;;;7.47;1.83;;;13.60;76.20;12.50;97429.00;;;;5071603;28;20245;-79
2024/01/26 07:33:07;;;;;;;1.77;1.67;;;13.60;76.20;12.50;97421.00;;;;5070485;28;20211;-79
2024/01/26 07:35:34;;;;;;;5.07;1.80;;;13.60;76.20;12.50;97423.00;;;;5072164;28;20267;-79
2024/01/26 07:38:02;;;;;;;3.53;1.50;;;13.60;76.10;12.60;97429.00;;;;5072409;28;20242;-78
2024/01/26 07:40:30;;;;;;;8.53;2.10;;;13.70;76.20;12.60;97425.00;;;;5076470;28;20223;-79
2024/01/26 07:42:57;;;;;;;7.10;1.30;;;13.70;76.90;12.60;97426.00;;;;5077620;28;20268;-78
2024/01/26 07:45:26;;;;;;;7.77;1.50;;;13.70;76.10;12.70;97415.00;;;;5072318;28;20216;-78
2024/01/26 07:47:57;;;;;;;3.57;1.47;;;13.80;76.00;12.70;97415.00;;;;5073995;28;20211;-79
2024/01/26 07:50:24;;;;;;;1.33;1.23;;;13.80;75.70;12.70;97416.00;;;;5073372;28;20333;-79
2024/01/26 07:52:51;;;;;;;2.47;1.40;;;13.80;75.70;12.70;97436.00;;;;5075312;28;20184;-79
2024/01/26 07:55:19;;;;;;;1.07;1.07;;;13.80;75.70;12.80;97430.00;;;;5074292;28;20204;-78
2024/01/26 07:57:46;;;;;;;2.53;1.30;;;13.90;75.60;12.80;97417.00;;;;5065822;28;20208;-79
2024/01/26 08:00:15;;;;;;;1.10;1.00;;;13.90;75.40;12.80;97411.00;;;;5072939;28;20210;-78
2024/01/26 08:02:44;;;;;;;1.20;1.10;;;13.90;75.20;12.80;97413.00;;;;5051945;28;20203;-79
2024/01/26 08:05:11;;;;;;;4.57;1.20;;;13.90;75.10;12.90;97414.00;;;;5069147;28;20641;-78
2024/01/26 08:07:38;;;;;;;1.20;1.10;;;14.00;75.20;12.90;97418.00;;;;5071432;28;20231;-79
2024/01/26 08:10:09;;;;;;;1.17;1.10;;;14.00;75.20;12.90;97417.00;;;;5070913;28;20280;-78
2024/01/26 08:12:36;;;;;;;0.90;0.90;;;14.00;75.00;12.90;97417.00;;;;5070464;28;20212;-79
2024/01/26 08:15:05;;;;;;;0.97;0.97;;;14.00;75.00;13.00;97408.00;;;;5070488;28;20211;-78
2024/01/26 08:17:33;;;;;;;1.10;1.07;;;14.00;74.90;13.00;97394.00;;;;5072481;28;20675;-79
2024/01/26 08:20:03;;;;;;;1.10;1.10;;;14.10;74.90;13.00;97383.00;;;;5071404;28;20625;-79
2024/01/26 08:22:30;;;;;;;1.20;1.10;;;14.10;74.70;13.00;97382.00;;;;5071498;28;20726;-78
2024/01/26 08:25:00;;;;;;;1.07;1.00;;;14.10;74.70;13.10;97381.00;;;;5071240;28;20188;-79
2024/01/26 08:27:28;;;;;;;2.63;1.03;;;14.20;74.60;13.10;97375.00;;;;5070457;28;20703;-79
2024/01/26 08:29:55;;;;;;;0.90;0.90;;;14.20;74.60;13.20;97374.00;;;;5069751;28;20590;-78
2024/01/26 08:32:22;;;;;;;2.83;1.10;;;14.20;74.50;13.20;97370.00;;;;5070534;28;20222;-78
2024/01/26 08:34:49;;;;;;;1.17;1.00;;;14.30;74.40;13.20;97364.00;;;;5072389;28;20245;-78
2024/01/26 08:37:18;;;;;;;2.20;1.00;;;14.30;74.40;13.30;97382.00;;;;5072037;28;20223;-78
2024/01/26 08:39:46;;;;;;;2.80;1.27;;;14.30;74.20;13.30;97388.00;;;;5069591;28;20208;-79
2024/01/26 08:42:13;;;;;;;3.47;1.10;;;14.40;74.20;13.30;97389.00;;;;5071324;28;20270;-79
2024/01/26 08:44:43;;;;;;;0.83;0.83;;;14.40;74.20;13.40;97377.00;;;;5057209;28;20233;-79
2024/01/26 08:47:10;;;;;;;1.07;0.70;;;14.40;74.10;13.40;97376.00;;;;5073582;28;20247;-79
2024/01/26 08:49:37;;;;;;;5.20;1.23;;;14.50;74.10;13.40;97379.00;;;;5072868;28;20204;-79
2024/01/26 08:52:05;;;;;;;0.87;0.70;;;14.50;74.10;13.50;97376.00;;;;5072720;28;20275;-79
2024/01/26 08:54:34;;;;;;;0.70;0.70;;;14.50;74.30;13.60;97366.00;;;;5072131;28;20215;-79
2024/01/26 08:57:01;;;;;;;1.47;0.80;;;14.60;74.20;13.60;97360.00;;;;5073930;28;20191;-79
2024/01/26 08:59:28;;;;;;;0.63;0.63;;;14.70;74.00;13.70;97361.00;;;;5071806;28;20239;-79
2024/01/26 09:01:56;;;;;;;0.60;0.60;;;14.70;73.70;13.70;97359.00;;;;5072187;28;20184;-78
2024/01/26 09:04:23;;;;;;;0.87;0.60;;;14.80;73.40;13.70;97359.00;;;;5070133;28;20192;-78
2024/01/26 09:06:51;;;;;;;1.63;1.30;;;14.80;73.10;13.80;97359.00;;;;5073387;28;20204;-78
2024/01/26 09:09:18;;;;;;;0.97;0.83;;;14.80;73.10;13.80;97352.00;;;;5074898;28;20212;-78
2024/01/26 09:11:47;;;;;;;2.37;0.87;;;14.80;73.90;13.80;97354.00;;;;5062805;28;20200;-79
2024/01/26 09:14:15;;;;;;;1.77;0.90;;;14.90;73.30;13.90;97355.00;;;;5078391;28;20195;-79
2024/01/26 09:16:42;;;;;;;1.73;0.83;;;14.90;73.30;14.00;97351.00;;;;5068824;28;20845;-79
2024/01/26 09:19:10;;;;;;;1.27;0.73;;;15.00;73.20;14.00;97346.00;;;;5068449;28;20203;-78
2024/01/26 09:21:37;;;;;;;0.67;0.60;;;15.00;73.10;14.00;97345.00;;;;5069522;28;20238;-79
2024/01/26 09:24:06;;;;;;;3.70;0.70;;;15.00;72.80;14.00;97343.00;;;;5070609;28;20196;-78
2024/01/26 09:26:33;;;;;;;1.37;0.70;;;15.10;72.60;14.10;97351.00;;;;5069952;28;20247;-78
2024/01/26 09:29:02;;;;;;;1.00;0.60;;;15.10;72.60;14.10;97354.00;;;;5069910;28;20212;-78
2024/01/26 09:31:29;;;;;;;1.20;0.60;;;15.10;72.30;14.10;97340.00;;;;5073906;28;20257;-78
2024/01/26 09:33:57;;;;;;;6.23;0.77;;;15.20;72.30;14.20;97335.00;;;;5071785;28;20317;-78
2024/01/26 09:36:24;;;;;;;1.23;0.63;;;15.20;72.30;14.20;97335.00;;;;5068833;28;20190;-79
2024/01/26 09:38:52;;;;;;;1.47;0.67;;;15.20;72.30;14.20;97337.00;;;;5070726;28;20211;-78
2024/01/26 09:41:20;;;;;;;0.60;0.43;;;15.30;72.10;14.30;97338.00;;;;5069116;28;20210;-79
2024/01/26 09:43:48;;;;;;;0.83;0.80;;;15.30;72.00;14.30;97338.00;;;;5073464;28;20711;-79
2024/01/26 09:46:17;;;;;;;0.60;0.50;;;15.30;72.00;14.30;97334.00;;;;5070881;28;20215;-79
2024/01/26 09:48:47;;;;;;;1.87;0.70;;;15.30;71.60;14.40;97339.00;;;;5070506;28;20302;-79
2024/01/26 09:51:15;;;;;;;1.83;0.57;;;15.40;71.60;14.40;97342.00;;;;5070921;28;20238;-79
2024/01/26 09:53:43;;;;;;;0.43;0.33;;;15.40;71.70;14.50;97344.00;;;;5069222;28;20206;-79
2024/01/26 09:56:11;;;;;;;0.33;0.33;;;15.50;71.90;14.60;97340.00;;;;5070604;28;20199;-79
2024/01/26 09:58:39;;;;;;;0.57;0.57;;;15.50;71.90;14.60;97346.00;;;;5072944;28;20266;-79
2024/01/26 10:01:08;;;;;;;0.73;0.60;;;15.60;71.50;14.70;97346.00;;;;5070897;28;20269;-79
2024/01/26 10:03:37;;;;;;;4.97;0.70;;;15.60;71.40;14.80;97347.00;;;;5069778;28;20214;-79
2024/01/26 10:06:24;;;;;;;0.60;0.60;;;15.70;71.20;14.90;97338.00;;;;5071394;28;20222;-79
2024/01/26 10:08:51;;;;;;;1.93;0.60;;;15.80;70.90;14.90;97332.00;;;;5071424;28;20255;-79
2024/01/26 10:11:18;;;;;;;0.67;0.40;;;15.90;71.10;15.00;97325.00;;;;5070176;28;20634;-79
2024/01/26 10:13:46;;;;;;;0.80;0.60;;;15.90;70.70;15.00;97318.00;;;;5064486;28;20283;-79
2024/01/26 10:16:14;;;;;;;0.93;0.40;;;16.00;70.50;15.10;97316.00;;;;5073924;28;20750;-79
2024/01/26 10:18:45;;;;;;;0.90;0.40;;;16.10;70.50;15.10;97309.00;;;;5073860;28;20237;-79
2024/01/26 10:21:14;;;;;;;0.60;0.60;;;16.10;70.10;15.20;97299.00;;;;5074866;28;20283;-79
2024/01/26 10:23:46;;;;;;;0.37;0.30;;;16.20;70.20;15.30;97289.00;;;;5074497;28;20653;-80
2024/01/26 10:26:17;;;;;;;0.97;0.40;;;16.20;69.90;15.30;97281.00;;;;5076737;28;20231;-79
2024/01/26 10:28:46;;;;;;;5.07;1.03;;;16.30;69.70;15.40;97282.00;;;;5081490;28;20212;-79
2024/01/26 10:31:13;;;;;;;0.40;0.33;;;16.30;70.10;15.50;97269.00;;;;5081570;28;20206;-79
2024/01/26 10:33:46;;;;;;;4.70;0.67;;;16.40;69.90;15.50;97278.00;;;;5080649;28;20188;-79
2024/01/26 10:36:16;;;;;;;0.87;0.40;;;16.60;69.60;15.50;97271.00;;;;5081166;28;20621;-79
2024/01/26 10:38:49;;;;;;;2.93;0.50;;;16.50;69.30;15.60;97268.00;;;;5057564;28;20214;-79
2024/01/26 10:41:21;;;;;;;0.40;0.40;;;16.50;69.40;15.60;97264.00;;;;5079440;28;20202;-79
2024/01/26 10:43:59;;;;;;;0.33;0.30;;;16.60;68.70;15.70;97254.00;;;;5075739;28;20200;-79
2024/01/26 10:46:27;;;;;;;0.20;0.20;;;16.60;68.70;15.70;97246.00;;;;5075637;28;20214;-79
2024/01/26 10:49:09;;;;;;;1.77;0.70;;;16.70;68.80;15.70;97228.00;;;;5075771;28;20676;-78
2024/01/26 10:51:38;;;;;;;0.20;0.10;;;16.70;68.30;15.80;97223.00;;;;5073654;28;20222;-79
2024/01/26 10:54:10;;;;;;;0.43;0.20;;;16.70;68.70;15.80;97209.00;;;;5076197;28;20196;-79
2024/01/26 10:56:40;;;;;;;0.90;0.23;;;16.80;68.50;15.90;97200.00;;;;5079312;28;20188;-79